Wetterdaten: Woche 16.06.14 - 22.06.14 (KW25)
Datum Zeit Temp. A. Feuchte A. Luftdruck Regen Wind Richtung Taupunkt Windchill Windben
16.06.2014 00:00 15,0 C 68 % 1018,6 hPa 0,0 l/m 0,3 km/h N 9,0 C 15,0 C 2,8 km/h
16.06.2014 01:00 14,8 C 68 % 1018,4 hPa 0,0 l/m 0,6 km/h N 8,9 C 14,8 C 4,4 km/h
16.06.2014 02:00 14,4 C 67 % 1018,2 hPa 0,0 l/m 0,5 km/h N 8,4 C 14,4 C 4,0 km/h
16.06.2014 03:00 12,9 C 71 % 1018,1 hPa 0,0 l/m 0,1 km/h N 7,7 C 12,9 C 1,2 km/h
16.06.2014 04:00 11,3 C 77 % 1017,9 hPa 0,0 l/m 0,0 km/h N 7,4 C 11,3 C 1,6 km/h
16.06.2014 05:00 10,4 C 78 % 1018,0 hPa 0,0 l/m 0,0 km/h N 6,8 C 10,4 C 0,0 km/h
16.06.2014 06:00 11,5 C 80 % 1018,2 hPa 0,0 l/m 0,9 km/h N 8,1 C 11,5 C 6,4 km/h
16.06.2014 07:00 14,2 C 71 % 1018,2 hPa 0,0 l/m 2,5 km/h N 9,0 C 14,2 C 9,6 km/h
16.06.2014 08:00 16,8 C 61 % 1018,0 hPa 0,0 l/m 2,2 km/h N 9,3 C 16,8 C 10,1 km/h
16.06.2014 09:00 18,5 C 53 % 1017,7 hPa 0,0 l/m 2,8 km/h N 8,8 C 18,5 C 11,3 km/h
16.06.2014 10:00 19,5 C 50 % 1017,4 hPa 0,0 l/m 3,1 km/h N 8,8 C 19,5 C 10,9 km/h
16.06.2014 11:00 20,1 C 50 % 1017,2 hPa 0,0 l/m 4,4 km/h N 9,2 C 20,1 C 13,7 km/h
16.06.2014 12:00 19,9 C 48 % 1016,8 hPa 0,0 l/m 2,6 km/h N 8,4 C 19,9 C 12,5 km/h
16.06.2014 13:00 20,9 C 45 % 1016,3 hPa 0,0 l/m 2,1 km/h N 8,5 C 20,9 C 10,4 km/h
16.06.2014 14:00 21,1 C 42 % 1015,9 hPa 0,0 l/m 2,2 km/h N 7,6 C 21,1 C 10,4 km/h
16.06.2014 15:00 21,0 C 42 % 1015,7 hPa 0,0 l/m 1,8 km/h N 7,6 C 21,0 C 10,5 km/h
16.06.2014 16:00 21,6 C 41 % 1015,2 hPa 0,0 l/m 4,5 km/h N 7,8 C 21,6 C 16,1 km/h
16.06.2014 17:00 22,7 C 40 % 1014,8 hPa 0,0 l/m 3,5 km/h N 8,3 C 22,7 C 12,5 km/h
16.06.2014 18:00 22,6 C 38 % 1014,6 hPa 0,0 l/m 3,6 km/h N 7,6 C 22,6 C 13,3 km/h
16.06.2014 19:00 21,5 C 40 % 1014,6 hPa 0,0 l/m 3,6 km/h N 7,4 C 21,5 C 14,9 km/h
16.06.2014 20:00 20,1 C 46 % 1014,6 hPa 0,0 l/m 1,8 km/h N 7,9 C 20,1 C 7,6 km/h
16.06.2014 21:00 17,8 C 52 % 1014,8 hPa 0,0 l/m 0,0 km/h N 7,8 C 17,8 C 1,6 km/h
16.06.2014 22:00 15,6 C 58 % 1015,0 hPa 0,0 l/m 0,0 km/h N 7,4 C 15,6 C 0,4 km/h
16.06.2014 23:00 14,3 C 65 % 1014,9 hPa 0,0 l/m 0,0 km/h N 7,8 C 14,3 C 0,0 km/h
17.06.2014 00:00 13,2 C 69 % 1015,0 hPa 0,0 l/m 0,0 km/h N 7,6 C 13,2 C 0,4 km/h
17.06.2014 01:00 12,1 C 74 % 1015,1 hPa 0,0 l/m 0,2 km/h N 7,5 C 12,1 C 2,8 km/h
17.06.2014 02:00 12,3 C 73 % 1014,9 hPa 0,0 l/m 0,3 km/h N 7,6 C 12,3 C 3,6 km/h
17.06.2014 03:00 12,4 C 73 % 1014,8 hPa 0,0 l/m 0,5 km/h N 7,7 C 12,4 C 4,0 km/h
17.06.2014 04:00 13,0 C 73 % 1014,8 hPa 0,0 l/m 0,2 km/h N 8,1 C 13,0 C 2,8 km/h
17.06.2014 05:00 13,3 C 73 % 1014,9 hPa 0,0 l/m 0,0 km/h N 8,5 C 13,3 C 0,0 km/h
17.06.2014 06:00 15,5 C 65 % 1015,0 hPa 0,0 l/m 2,5 km/h N 8,9 C 15,5 C 9,3 km/h
17.06.2014 07:00 17,1 C 61 % 1015,2 hPa 0,0 l/m 3,8 km/h N 9,5 C 17,1 C 12,5 km/h
17.06.2014 08:00 18,3 C 59 % 1015,5 hPa 0,0 l/m 4,8 km/h N 10,1 C 18,3 C 18,1 km/h
17.06.2014 09:00 19,9 C 52 % 1015,6 hPa 0,0 l/m 4,8 km/h N 9,8 C 19,9 C 16,9 km/h
17.06.2014 10:00 21,0 C 47 % 1015,6 hPa 0,0 l/m 4,9 km/h N 9,2 C 21,0 C 18,1 km/h
17.06.2014 11:00 21,8 C 45 % 1015,5 hPa 0,0 l/m 5,7 km/h N 9,2 C 21,7 C 16,5 km/h
17.06.2014 12:00 22,4 C 42 % 1015,5 hPa 0,0 l/m 4,4 km/h N 8,8 C 22,4 C 16,5 km/h
17.06.2014 13:00 22,1 C 42 % 1015,4 hPa 0,0 l/m 3,8 km/h N 8,6 C 22,1 C 15,3 km/h
17.06.2014 14:00 23,3 C 39 % 1015,0 hPa 0,0 l/m 5,5 km/h N 8,4 C 23,2 C 17,7 km/h
17.06.2014 15:00 23,8 C 37 % 1014,6 hPa 0,0 l/m 5,4 km/h N 8,1 C 23,8 C 19,3 km/h
17.06.2014 16:00 24,3 C 36 % 1014,1 hPa 0,0 l/m 4,6 km/h N 8,2 C 24,3 C 17,7 km/h
17.06.2014 17:00 23,4 C 37 % 1013,9 hPa 0,0 l/m 5,1 km/h N 7,8 C 23,3 C 17,3 km/h
17.06.2014 18:00 23,5 C 38 % 1013,6 hPa 0,0 l/m 4,1 km/h N 8,2 C 23,5 C 14,9 km/h
17.06.2014 19:00 22,0 C 44 % 1013,9 hPa 0,0 l/m 2,7 km/h N 9,0 C 22,0 C 11,7 km/h
17.06.2014 20:00 20,8 C 45 % 1014,2 hPa 0,0 l/m 1,4 km/h N 8,4 C 20,8 C 7,6 km/h
17.06.2014 21:00 18,9 C 49 % 1014,9 hPa 0,0 l/m 0,4 km/h N 8,0 C 18,9 C 2,8 km/h
17.06.2014 22:00 16,6 C 57 % 1015,5 hPa 0,0 l/m 0,0 km/h N 8,0 C 16,6 C 0,0 km/h
17.06.2014 23:00 14,9 C 63 % 1015,8 hPa 0,0 l/m 0,2 km/h N 7,8 C 14,9 C 2,0 km/h
18.06.2014 00:00 15,4 C 62 % 1016,1 hPa 0,0 l/m 0,6 km/h N 8,0 C 15,4 C 6,0 km/h
18.06.2014 01:00 15,3 C 62 % 1016,1 hPa 0,0 l/m 0,3 km/h N 8,0 C 15,3 C 3,2 km/h
18.06.2014 02:00 13,8 C 67 % 1016,2 hPa 0,0 l/m 0,0 km/h N 7,8 C 13,8 C 1,2 km/h
18.06.2014 03:00 12,6 C 73 % 1016,1 hPa 0,0 l/m 0,1 km/h N 7,8 C 12,6 C 2,0 km/h
18.06.2014 04:00 12,6 C 74 % 1016,0 hPa 0,0 l/m 0,1 km/h N 8,1 C 12,6 C 2,8 km/h
18.06.2014 05:00 12,7 C 75 % 1016,3 hPa 0,0 l/m 0,1 km/h N 8,4 C 12,7 C 2,8 km/h
18.06.2014 06:00 13,5 C 75 % 1016,5 hPa 0,0 l/m 1,0 km/h N 9,2 C 13,5 C 4,4 km/h
18.06.2014 07:00 16,9 C 63 % 1016,8 hPa 0,0 l/m 3,6 km/h N 9,8 C 16,9 C 11,7 km/h
18.06.2014 08:00 18,8 C 60 % 1017,0 hPa 0,0 l/m 3,4 km/h N 10,7 C 18,8 C 11,3 km/h
18.06.2014 09:00 20,4 C 56 % 1017,2 hPa 0,0 l/m 3,6 km/h N 11,4 C 20,4 C 13,7 km/h
18.06.2014 10:00 21,8 C 52 % 1017,1 hPa 0,0 l/m 4,5 km/h N 11,3 C 21,8 C 18,1 km/h
18.06.2014 11:00 22,7 C 48 % 1017,0 hPa 0,0 l/m 4,7 km/h N 11,1 C 22,7 C 16,9 km/h
18.06.2014 12:00 23,8 C 42 % 1016,6 hPa 0,0 l/m 4,2 km/h N 10,2 C 23,8 C 23,7 km/h
18.06.2014 13:00 24,5 C 38 % 1016,2 hPa 0,0 l/m 3,5 km/h N 9,3 C 24,5 C 13,7 km/h
18.06.2014 14:00 23,9 C 40 % 1015,8 hPa 0,0 l/m 1,5 km/h N 9,3 C 23,9 C 8,4 km/h
18.06.2014 15:00 23,9 C 38 % 1015,6 hPa 0,0 l/m 1,3 km/h N 8,6 C 23,9 C 8,0 km/h
18.06.2014 16:00 25,1 C 35 % 1015,2 hPa 0,0 l/m 2,6 km/h N 8,5 C 25,1 C 10,5 km/h
18.06.2014 17:00 25,5 C 35 % 1014,7 hPa 0,0 l/m 2,9 km/h N 8,7 C 25,5 C 12,1 km/h
18.06.2014 18:00 26,1 C 33 % 1014,2 hPa 0,0 l/m 1,6 km/h N 8,4 C 26,1 C 8,0 km/h
18.06.2014 19:00 25,7 C 35 % 1014,2 hPa 0,0 l/m 0,8 km/h N 8,9 C 25,7 C 7,2 km/h
18.06.2014 20:00 23,8 C 38 % 1014,4 hPa 0,0 l/m 0,6 km/h N 8,7 C 23,8 C 6,9 km/h
18.06.2014 21:00 20,3 C 50 % 1014,8 hPa 0,0 l/m 0,1 km/h N 9,5 C 20,3 C 1,2 km/h
18.06.2014 22:00 17,2 C 60 % 1015,2 hPa 0,0 l/m 0,0 km/h N 9,2 C 17,2 C 1,2 km/h
18.06.2014 23:00 16,1 C 64 % 1015,3 hPa 0,0 l/m 0,4 km/h N 9,2 C 16,1 C 4,0 km/h
19.06.2014 00:00 15,8 C 66 % 1015,4 hPa 0,0 l/m 0,0 km/h N 9,4 C 15,8 C 0,0 km/h
19.06.2014 01:00 15,3 C 66 % 1015,2 hPa 0,0 l/m 0,0 km/h N 9,0 C 15,3 C 0,0 km/h
19.06.2014 02:00 14,4 C 68 % 1015,0 hPa 0,0 l/m 0,0 km/h N 8,6 C 14,4 C 0,0 km/h
19.06.2014 03:00 13,6 C 71 % 1014,8 hPa 0,0 l/m 0,0 km/h N 8,4 C 13,6 C 0,0 km/h
19.06.2014 04:00 12,8 C 74 % 1014,8 hPa 0,0 l/m 0,0 km/h N 8,3 C 12,8 C 0,0 km/h
19.06.2014 05:00 12,6 C 75 % 1014,6 hPa 0,0 l/m 0,1 km/h N 8,3 C 12,6 C 2,8 km/h
19.06.2014 06:00 13,3 C 74 % 1014,4 hPa 0,0 l/m 0,0 km/h N 8,8 C 13,3 C 0,0 km/h
19.06.2014 07:00 15,5 C 71 % 1014,3 hPa 0,0 l/m 0,0 km/h N 10,1 C 15,5 C 1,2 km/h
19.06.2014 08:00 20,4 C 57 % 1014,0 hPa 0,0 l/m 0,3 km/h N 11,5 C 20,4 C 3,6 km/h
19.06.2014 09:00 21,8 C 52 % 1013,9 hPa 0,0 l/m 2,3 km/h N 11,5 C 21,8 C 9,3 km/h
19.06.2014 10:00 23,4 C 48 % 1013,3 hPa 0,0 l/m 2,8 km/h N 11,8 C 23,4 C 10,5 km/h
19.06.2014 11:00 24,3 C 46 % 1012,9 hPa 0,0 l/m 3,6 km/h N 11,8 C 24,3 C 12,5 km/h
19.06.2014 12:00 25,2 C 42 % 1012,3 hPa 0,0 l/m 3,8 km/h N 11,2 C 25,2 C 13,7 km/h
19.06.2014 13:00 24,8 C 40 % 1011,7 hPa 0,0 l/m 5,4 km/h N 10,4 C 24,8 C 18,1 km/h
19.06.2014 14:00 26,0 C 39 % 1011,2 hPa 0,0 l/m 7,0 km/h N 10,7 C 25,7 C 23,3 km/h
19.06.2014 15:00 24,0 C 41 % 1011,2 hPa 0,0 l/m 9,5 km/h N 9,8 C 23,2 C 25,7 km/h
19.06.2014 16:00 22,3 C 44 % 1010,8 hPa 0,0 l/m 11,2 km/h N 9,4 C 20,9 C 28,2 km/h
19.06.2014 17:00 22,4 C 42 % 1010,2 hPa 0,0 l/m 5,5 km/h N 8,9 C 22,4 C 20,9 km/h
19.06.2014 18:00 23,8 C 43 % 1009,5 hPa 0,0 l/m 4,8 km/h N 10,4 C 23,8 C 18,1 km/h
19.06.2014 19:00 23,9 C 43 % 1009,0 hPa 0,0 l/m 4,1 km/h N 10,4 C 23,9 C 16,9 km/h
19.06.2014 20:00 22,6 C 45 % 1009,0 hPa 0,0 l/m 3,4 km/h N 10,2 C 22,6 C 17,3 km/h
19.06.2014 21:00 21,9 C 47 % 1009,3 hPa 0,0 l/m 3,4 km/h N 10,0 C 21,9 C 13,7 km/h
19.06.2014 22:00 21,2 C 49 % 1009,8 hPa 0,0 l/m 2,6 km/h N 9,9 C 21,2 C 11,7 km/h
19.06.2014 23:00 20,5 C 53 % 1010,2 hPa 0,0 l/m 2,3 km/h N 10,7 C 20,5 C 9,7 km/h
20.06.2014 00:00 19,2 C 58 % 1010,8 hPa 0,0 l/m 1,8 km/h N 10,6 C 19,2 C 9,2 km/h
20.06.2014 01:00 17,7 C 60 % 1011,5 hPa 0,0 l/m 4,3 km/h N 9,9 C 17,7 C 15,7 km/h
20.06.2014 02:00 16,5 C 65 % 1011,5 hPa 0,0 l/m 2,0 km/h N 9,9 C 16,5 C 9,1 km/h
20.06.2014 03:00 15,6 C 68 % 1011,6 hPa 0,0 l/m 0,8 km/h N 9,7 C 15,6 C 6,4 km/h
20.06.2014 04:00 15,5 C 68 % 1011,7 hPa 0,0 l/m 1,6 km/h N 9,6 C 15,5 C 9,7 km/h
20.06.2014 05:00 15,2 C 70 % 1011,7 hPa 0,0 l/m 0,8 km/h N 9,7 C 15,2 C 8,1 km/h
20.06.2014 06:00 14,8 C 77 % 1012,2 hPa 0,3 l/m 3,2 km/h N 10,7 C 14,8 C 16,1 km/h
20.06.2014 07:00 13,7 C 83 % 1012,8 hPa 2,9 l/m 1,6 km/h N 10,7 C 13,7 C 8,1 km/h
20.06.2014 08:00 13,9 C 82 % 1012,8 hPa 0,0 l/m 2,8 km/h N 10,8 C 13,9 C 8,9 km/h
20.06.2014 09:00 14,1 C 83 % 1012,8 hPa 0,3 l/m 5,4 km/h N 11,2 C 14,1 C 17,3 km/h
20.06.2014 10:00 14,2 C 80 % 1013,0 hPa 0,0 l/m 5,2 km/h N 10,8 C 14,1 C 18,1 km/h
20.06.2014 11:00 15,0 C 79 % 1012,7 hPa 0,0 l/m 4,8 km/h N 11,3 C 14,9 C 17,7 km/h
20.06.2014 12:00 17,8 C 69 % 1011,9 hPa 0,0 l/m 7,5 km/h N 12,0 C 17,2 C 23,3 km/h
20.06.2014 13:00 18,3 C 65 % 1011,6 hPa 0,5 l/m 7,4 km/h N 11,6 C 17,8 C 23,3 km/h
20.06.2014 14:00 17,4 C 75 % 1011,8 hPa 0,5 l/m 5,1 km/h N 13,0 C 17,4 C 19,7 km/h
20.06.2014 15:00 18,9 C 69 % 1011,3 hPa 0,0 l/m 3,8 km/h N 13,0 C 18,9 C 15,3 km/h
20.06.2014 16:00 18,5 C 69 % 1011,2 hPa 0,0 l/m 4,4 km/h N 12,6 C 18,4 C 17,7 km/h
20.06.2014 17:00 17,4 C 72 % 1011,3 hPa 0,0 l/m 3,0 km/h N 12,3 C 17,4 C 14,1 km/h
20.06.2014 18:00 16,6 C 74 % 1011,8 hPa 0,0 l/m 1,7 km/h N 11,9 C 16,6 C 10,5 km/h
20.06.2014 19:00 16,4 C 70 % 1012,6 hPa 0,0 l/m 5,3 km/h N 10,9 C 16,4 C 17,7 km/h
20.06.2014 20:00 15,6 C 73 % 1013,2 hPa 0,0 l/m 5,3 km/h N 10,9 C 15,5 C 15,3 km/h
20.06.2014 21:00 15,3 C 74 % 1014,0 hPa 0,0 l/m 3,4 km/h N 10,6 C 15,3 C 12,1 km/h
20.06.2014 22:00 15,1 C 73 % 1014,5 hPa 0,0 l/m 3,5 km/h N 10,3 C 15,1 C 13,7 km/h
20.06.2014 23:00 14,7 C 71 % 1014,6 hPa 0,0 l/m 4,8 km/h N 9,5 C 14,6 C 17,3 km/h
21.06.2014 00:00 14,6 C 71 % 1014,8 hPa 0,0 l/m 6,6 km/h N 9,3 C 14,3 C 19,3 km/h
21.06.2014 01:00 14,5 C 70 % 1014,8 hPa 0,0 l/m 5,9 km/h N 9,1 C 14,4 C 18,9 km/h
21.06.2014 02:00 14,2 C 71 % 1014,9 hPa 0,0 l/m 4,3 km/h N 8,9 C 14,2 C 17,7 km/h
21.06.2014 03:00 13,8 C 74 % 1014,8 hPa 0,0 l/m 3,5 km/h N 9,1 C 13,8 C 14,9 km/h
21.06.2014 04:00 13,4 C 74 % 1015,0 hPa 0,0 l/m 1,9 km/h N 8,9 C 13,4 C 10,5 km/h
21.06.2014 05:00 13,2 C 75 % 1015,4 hPa 0,0 l/m 2,5 km/h N 8,9 C 13,2 C 10,1 km/h
21.06.2014 06:00 14,0 C 73 % 1015,6 hPa 0,0 l/m 5,1 km/h N 9,3 C 14,0 C 16,1 km/h
21.06.2014 07:00 15,0 C 72 % 1015,8 hPa 0,0 l/m 5,8 km/h N 9,9 C 14,9 C 19,3 km/h
21.06.2014 08:00 16,2 C 68 % 1016,0 hPa 0,0 l/m 5,9 km/h N 10,1 C 16,1 C 18,1 km/h
21.06.2014 09:00 17,3 C 63 % 1016,0 hPa 0,0 l/m 7,2 km/h N 10,2 C 16,9 C 22,1 km/h
21.06.2014 10:00 17,6 C 62 % 1016,1 hPa 0,0 l/m 7,3 km/h N 10,2 C 17,1 C 20,9 km/h
21.06.2014 11:00 17,2 C 64 % 1016,1 hPa 0,0 l/m 3,4 km/h N 10,3 C 17,2 C 15,3 km/h
21.06.2014 12:00 17,6 C 61 % 1015,9 hPa 0,0 l/m 5,4 km/h N 10,1 C 17,6 C 16,9 km/h
21.06.2014 13:00 18,8 C 55 % 1015,6 hPa 0,0 l/m 7,7 km/h N 9,6 C 18,1 C 20,1 km/h
21.06.2014 14:00 19,0 C 54 % 1015,6 hPa 0,0 l/m 7,5 km/h N 9,3 C 18,5 C 23,3 km/h
21.06.2014 15:00 19,2 C 52 % 1015,5 hPa 0,0 l/m 7,4 km/h N 9,1 C 18,7 C 21,7 km/h
21.06.2014 16:00 19,2 C 50 % 1015,5 hPa 0,0 l/m 4,6 km/h N 8,4 C 19,2 C 16,1 km/h
21.06.2014 17:00 19,0 C 51 % 1015,4 hPa 0,0 l/m 5,5 km/h N 8,5 C 19,0 C 18,1 km/h
21.06.2014 18:00 19,4 C 52 % 1015,2 hPa 0,0 l/m 2,8 km/h N 9,2 C 19,4 C 10,5 km/h
21.06.2014 19:00 18,8 C 56 % 1015,3 hPa 0,0 l/m 2,1 km/h N 9,7 C 18,8 C 8,4 km/h
21.06.2014 20:00 18,1 C 59 % 1015,4 hPa 0,0 l/m 0,7 km/h N 10,0 C 18,1 C 5,6 km/h
21.06.2014 21:00 16,5 C 65 % 1016,0 hPa 0,0 l/m 0,0 km/h N 9,8 C 16,5 C 0,0 km/h
21.06.2014 22:00 15,1 C 71 % 1016,6 hPa 0,0 l/m 0,1 km/h N 9,9 C 15,1 C 2,0 km/h
21.06.2014 23:00 14,9 C 72 % 1016,7 hPa 0,0 l/m 0,0 km/h N 9,9 C 14,9 C 1,2 km/h
22.06.2014 00:00 14,6 C 73 % 1016,8 hPa 0,0 l/m 0,0 km/h N 9,7 C 14,6 C 0,0 km/h
22.06.2014 01:00 14,0 C 74 % 1016,7 hPa 0,0 l/m 0,0 km/h N 9,5 C 14,0 C 0,0 km/h
22.06.2014 02:00 14,0 C 75 % 1016,7 hPa 0,0 l/m 0,0 km/h N 9,7 C 14,0 C 0,8 km/h
22.06.2014 03:00 13,9 C 75 % 1016,6 hPa 0,0 l/m 0,0 km/h N 9,4 C 13,9 C 0,8 km/h
22.06.2014 04:00 13,6 C 74 % 1016,4 hPa 0,0 l/m 0,0 km/h N 9,1 C 13,6 C 1,2 km/h
22.06.2014 05:00 13,3 C 75 % 1016,5 hPa 0,0 l/m 0,3 km/h N 8,9 C 13,3 C 3,6 km/h
22.06.2014 06:00 13,7 C 76 % 1016,8 hPa 0,0 l/m 0,1 km/h N 9,5 C 13,7 C 2,0 km/h
22.06.2014 07:00 15,4 C 70 % 1017,1 hPa 0,0 l/m 1,7 km/h N 9,8 C 15,4 C 6,4 km/h
22.06.2014 08:00 17,5 C 60 % 1017,6 hPa 0,0 l/m 4,0 km/h N 9,6 C 17,5 C 12,5 km/h
22.06.2014 09:00 18,6 C 58 % 1017,7 hPa 0,0 l/m 3,5 km/h N 10,0 C 18,6 C 13,7 km/h
22.06.2014 10:00 20,3 C 52 % 1017,6 hPa 0,0 l/m 4,1 km/h N 10,2 C 20,3 C 14,9 km/h
22.06.2014 11:00 21,9 C 49 % 1017,1 hPa 0,0 l/m 3,8 km/h N 10,5 C 21,9 C 16,5 km/h
22.06.2014 12:00 22,3 C 46 % 1016,8 hPa 0,0 l/m 7,6 km/h N 10,0 C 21,9 C 20,9 km/h
22.06.2014 13:00 23,5 C 43 % 1016,3 hPa 0,0 l/m 6,0 km/h N 10,0 C 23,3 C 21,3 km/h
22.06.2014 14:00 24,3 C 42 % 1015,8 hPa 0,0 l/m 6,5 km/h N 10,6 C 24,2 C 22,9 km/h
22.06.2014 15:00 24,7 C 37 % 1015,6 hPa 0,0 l/m 7,5 km/h N 8,9 C 24,4 C 23,3 km/h
22.06.2014 16:00 25,2 C 38 % 1015,3 hPa 0,0 l/m 5,3 km/h N 9,8 C 25,2 C 20,9 km/h
22.06.2014 17:00 25,9 C 35 % 1015,1 hPa 0,0 l/m 4,7 km/h N 9,2 C 25,9 C 20,1 km/h
22.06.2014 18:00 25,8 C 35 % 1015,1 hPa 0,0 l/m 4,2 km/h N 9,0 C 25,8 C 15,3 km/h
22.06.2014 19:00 25,4 C 36 % 1015,2 hPa 0,0 l/m 3,8 km/h N 9,3 C 25,4 C 14,5 km/h
22.06.2014 20:00 24,3 C 41 % 1015,3 hPa 0,0 l/m 0,3 km/h N 10,2 C 24,3 C 4,4 km/h
22.06.2014 21:00 20,7 C 51 % 1016,1 hPa 0,0 l/m 0,0 km/h N 10,2 C 20,7 C 0,8 km/h
22.06.2014 22:00 17,8 C 59 % 1016,9 hPa 0,0 l/m 0,2 km/h N 9,6 C 17,8 C 3,2 km/h
22.06.2014 23:00 16,0 C 64 % 1017,4 hPa 0,0 l/m 0,0 km/h N 9,1 C 16,0 C 0,8 km/h
Min-Datum _ 16.06.14 18.06.14 19.06.14 - 16.06.14 - 17.06.14 16.06.14 16.06.14
_ Min-Zeit 05:45 18:15 20:30 - 00:45 - 17:30 05:45 00:45
Minimum _ 10,2 C 31 % 1008,9 hPa - 0,0 km/h - 6,6 C 10,2 C 0,0 km/h
Max-Datum _ 19.06.14 20.06.14 16.06.14 20.06.14 19.06.14 - 20.06.14 19.06.14 18.06.14
_ Max-Zeit 14:30 07:15 00:30 07:00 16:15 - 14:45 14:30 12:45
Maximum _ 26,8 C 83 % 1018,6 hPa 2,9 l/m 13,9 km/h
N
- 13,5 C 26,5 C 38,6 km/h
N
Durchschnitt _ 18,3 C 58 % 1014,9 hPa #4,4 l/m 2,8 km/h N 9,4 C 18,2 C 10,8 km/h